sensor_id;sensor_type;location;lat;lon;timestamp;P1;durP1;ratioP1;P2;durP2;ratioP2
74945;SDS011;63509;45.250;38.102;2022-11-14T00:00:31;7.00;;;2.92;;
74945;SDS011;63509;45.250;38.102;2022-11-14T00:03:16;7.28;;;3.78;;
74945;SDS011;63509;45.250;38.102;2022-11-14T00:06:03;6.03;;;3.03;;
74945;SDS011;63509;45.250;38.102;2022-11-14T00:08:49;6.50;;;2.85;;
74945;SDS011;63509;45.250;38.102;2022-11-14T00:11:34;8.43;;;3.28;;
74945;SDS011;63509;45.250;38.102;2022-11-14T00:14:19;6.30;;;2.92;;
74945;SDS011;63509;45.250;38.102;2022-11-14T00:17:04;7.13;;;2.88;;
74945;SDS011;63509;45.250;38.102;2022-11-14T00:19:49;6.85;;;2.70;;
74945;SDS011;63509;45.250;38.102;2022-11-14T00:22:33;6.30;;;2.90;;
74945;SDS011;63509;45.250;38.102;2022-11-14T00:25:18;7.05;;;3.30;;
74945;SDS011;63509;45.250;38.102;2022-11-14T00:28:03;6.22;;;2.83;;
74945;SDS011;63509;45.250;38.102;2022-11-14T00:30:48;8.38;;;2.90;;
74945;SDS011;63509;45.250;38.102;2022-11-14T00:33:33;7.38;;;3.30;;
74945;SDS011;63509;45.250;38.102;2022-11-14T00:36:17;5.57;;;2.92;;
74945;SDS011;63509;45.250;38.102;2022-11-14T00:39:02;8.43;;;3.53;;
74945;SDS011;63509;45.250;38.102;2022-11-14T00:41:47;7.10;;;3.28;;
74945;SDS011;63509;45.250;38.102;2022-11-14T00:44:32;7.03;;;3.10;;
74945;SDS011;63509;45.250;38.102;2022-11-14T00:47:17;5.22;;;2.67;;
74945;SDS011;63509;45.250;38.102;2022-11-14T00:50:02;8.18;;;3.10;;
74945;SDS011;63509;45.250;38.102;2022-11-14T00:52:47;5.05;;;2.72;;
74945;SDS011;63509;45.250;38.102;2022-11-14T00:55:32;6.45;;;3.08;;
74945;SDS011;63509;45.250;38.102;2022-11-14T00:58:16;7.05;;;3.42;;
74945;SDS011;63509;45.250;38.102;2022-11-14T01:01:02;8.73;;;3.03;;
74945;SDS011;63509;45.250;38.102;2022-11-14T01:03:50;7.55;;;3.05;;
74945;SDS011;63509;45.250;38.102;2022-11-14T01:06:35;8.60;;;3.30;;
74945;SDS011;63509;45.250;38.102;2022-11-14T01:09:20;6.95;;;3.10;;
74945;SDS011;63509;45.250;38.102;2022-11-14T01:12:04;4.85;;;2.88;;
74945;SDS011;63509;45.250;38.102;2022-11-14T01:14:49;6.50;;;3.20;;
74945;SDS011;63509;45.250;38.102;2022-11-14T01:17:33;6.28;;;3.05;;
74945;SDS011;63509;45.250;38.102;2022-11-14T01:20:18;8.05;;;3.10;;
74945;SDS011;63509;45.250;38.102;2022-11-14T01:23:02;6.43;;;3.55;;
74945;SDS011;63509;45.250;38.102;2022-11-14T01:25:47;8.85;;;3.50;;
74945;SDS011;63509;45.250;38.102;2022-11-14T01:28:32;5.28;;;2.97;;
74945;SDS011;63509;45.250;38.102;2022-11-14T01:34:02;7.15;;;3.05;;
74945;SDS011;63509;45.250;38.102;2022-11-14T01:36:46;5.90;;;3.20;;
74945;SDS011;63509;45.250;38.102;2022-11-14T01:39:31;7.45;;;3.60;;
74945;SDS011;63509;45.250;38.102;2022-11-14T01:42:16;7.82;;;3.53;;
74945;SDS011;63509;45.250;38.102;2022-11-14T01:45:00;6.90;;;3.17;;
74945;SDS011;63509;45.250;38.102;2022-11-14T01:48:07;6.03;;;2.75;;
74945;SDS011;63509;45.250;38.102;2022-11-14T01:51:16;4.35;;;2.63;;
74945;SDS011;63509;45.250;38.102;2022-11-14T01:54:19;9.45;;;4.18;;
74945;SDS011;63509;45.250;38.102;2022-11-14T01:57:08;7.15;;;3.53;;
74945;SDS011;63509;45.250;38.102;2022-11-14T01:59:54;10.45;;;3.38;;
74945;SDS011;63509;45.250;38.102;2022-11-14T02:02:41;7.70;;;3.45;;
74945;SDS011;63509;45.250;38.102;2022-11-14T02:05:28;9.55;;;3.42;;
74945;SDS011;63509;45.250;38.102;2022-11-14T02:08:14;7.93;;;3.83;;
74945;SDS011;63509;45.250;38.102;2022-11-14T02:10:59;7.20;;;3.45;;
74945;SDS011;63509;45.250;38.102;2022-11-14T02:13:44;6.68;;;2.78;;
74945;SDS011;63509;45.250;38.102;2022-11-14T02:16:28;7.55;;;3.90;;
74945;SDS011;63509;45.250;38.102;2022-11-14T02:19:13;8.43;;;3.63;;
74945;SDS011;63509;45.250;38.102;2022-11-14T02:21:58;6.63;;;3.45;;
74945;SDS011;63509;45.250;38.102;2022-11-14T02:24:43;7.35;;;3.33;;
74945;SDS011;63509;45.250;38.102;2022-11-14T02:27:28;7.63;;;3.83;;
74945;SDS011;63509;45.250;38.102;2022-11-14T02:30:18;10.48;;;5.45;;
74945;SDS011;63509;45.250;38.102;2022-11-14T02:33:05;10.18;;;5.95;;
74945;SDS011;63509;45.250;38.102;2022-11-14T02:35:49;10.43;;;7.05;;
74945;SDS011;63509;45.250;38.102;2022-11-14T02:38:34;16.55;;;6.90;;
74945;SDS011;63509;45.250;38.102;2022-11-14T02:41:19;9.68;;;6.03;;
74945;SDS011;63509;45.250;38.102;2022-11-14T02:44:03;9.57;;;5.80;;
74945;SDS011;63509;45.250;38.102;2022-11-14T02:46:48;8.23;;;4.50;;
74945;SDS011;63509;45.250;38.102;2022-11-14T02:49:33;7.55;;;4.07;;
74945;SDS011;63509;45.250;38.102;2022-11-14T02:52:17;7.57;;;3.72;;
74945;SDS011;63509;45.250;38.102;2022-11-14T02:55:03;7.57;;;3.90;;
74945;SDS011;63509;45.250;38.102;2022-11-14T02:57:48;7.80;;;3.92;;
74945;SDS011;63509;45.250;38.102;2022-11-14T03:00:33;7.65;;;3.45;;
74945;SDS011;63509;45.250;38.102;2022-11-14T03:03:17;6.45;;;3.13;;
74945;SDS011;63509;45.250;38.102;2022-11-14T03:06:02;8.07;;;3.80;;
74945;SDS011;63509;45.250;38.102;2022-11-14T03:08:47;7.97;;;3.92;;
74945;SDS011;63509;45.250;38.102;2022-11-14T03:11:32;8.52;;;4.13;;
74945;SDS011;63509;45.250;38.102;2022-11-14T03:14:16;8.00;;;4.25;;
74945;SDS011;63509;45.250;38.102;2022-11-14T03:17:01;6.82;;;4.07;;
74945;SDS011;63509;45.250;38.102;2022-11-14T03:19:45;7.78;;;4.10;;
74945;SDS011;63509;45.250;38.102;2022-11-14T03:22:30;8.70;;;4.97;;
74945;SDS011;63509;45.250;38.102;2022-11-14T03:25:14;10.57;;;5.20;;
74945;SDS011;63509;45.250;38.102;2022-11-14T03:27:59;8.68;;;5.88;;
74945;SDS011;63509;45.250;38.102;2022-11-14T03:30:45;12.48;;;7.88;;
74945;SDS011;63509;45.250;38.102;2022-11-14T03:33:29;12.82;;;8.48;;
74945;SDS011;63509;45.250;38.102;2022-11-14T03:36:14;10.75;;;7.13;;
74945;SDS011;63509;45.250;38.102;2022-11-14T03:38:59;11.88;;;6.32;;
74945;SDS011;63509;45.250;38.102;2022-11-14T03:41:44;11.25;;;6.18;;
74945;SDS011;63509;45.250;38.102;2022-11-14T03:44:28;10.23;;;4.82;;
74945;SDS011;63509;45.250;38.102;2022-11-14T03:47:14;7.43;;;4.70;;
74945;SDS011;63509;45.250;38.102;2022-11-14T03:49:59;7.68;;;4.13;;
74945;SDS011;63509;45.250;38.102;2022-11-14T03:52:43;8.98;;;4.68;;
74945;SDS011;63509;45.250;38.102;2022-11-14T03:55:28;7.40;;;4.10;;
74945;SDS011;63509;45.250;38.102;2022-11-14T03:58:12;8.30;;;4.10;;
74945;SDS011;63509;45.250;38.102;2022-11-14T04:00:57;6.70;;;3.70;;
74945;SDS011;63509;45.250;38.102;2022-11-14T04:03:41;8.32;;;4.30;;
74945;SDS011;63509;45.250;38.102;2022-11-14T04:06:26;9.50;;;3.95;;
74945;SDS011;63509;45.250;38.102;2022-11-14T04:09:10;7.22;;;3.65;;
74945;SDS011;63509;45.250;38.102;2022-11-14T04:11:55;11.13;;;4.07;;
74945;SDS011;63509;45.250;38.102;2022-11-14T04:14:40;10.77;;;4.78;;
74945;SDS011;63509;45.250;38.102;2022-11-14T04:17:24;10.93;;;4.63;;
74945;SDS011;63509;45.250;38.102;2022-11-14T04:20:09;12.93;;;5.22;;
74945;SDS011;63509;45.250;38.102;2022-11-14T04:22:54;11.30;;;4.93;;
74945;SDS011;63509;45.250;38.102;2022-11-14T04:25:39;11.75;;;5.07;;
74945;SDS011;63509;45.250;38.102;2022-11-14T04:28:23;14.50;;;6.25;;
74945;SDS011;63509;45.250;38.102;2022-11-14T04:31:08;8.52;;;4.82;;
74945;SDS011;63509;45.250;38.102;2022-11-14T04:33:52;11.95;;;5.32;;
74945;SDS011;63509;45.250;38.102;2022-11-14T04:36:37;11.98;;;5.40;;
74945;SDS011;63509;45.250;38.102;2022-11-14T04:39:22;11.82;;;5.53;;
74945;SDS011;63509;45.250;38.102;2022-11-14T04:42:06;15.57;;;5.10;;
74945;SDS011;63509;45.250;38.102;2022-11-14T04:44:51;12.40;;;6.85;;
74945;SDS011;63509;45.250;38.102;2022-11-14T04:47:36;16.52;;;8.90;;
74945;SDS011;63509;45.250;38.102;2022-11-14T04:50:21;19.75;;;10.25;;
74945;SDS011;63509;45.250;38.102;2022-11-14T04:53:06;16.80;;;10.20;;
74945;SDS011;63509;45.250;38.102;2022-11-14T04:55:50;20.95;;;11.07;;
74945;SDS011;63509;45.250;38.102;2022-11-14T04:58:35;20.80;;;11.65;;
74945;SDS011;63509;45.250;38.102;2022-11-14T05:01:20;22.55;;;10.55;;
74945;SDS011;63509;45.250;38.102;2022-11-14T05:04:05;12.82;;;7.03;;
74945;SDS011;63509;45.250;38.102;2022-11-14T05:06:49;15.27;;;7.00;;
74945;SDS011;63509;45.250;38.102;2022-11-14T05:09:34;12.95;;;5.88;;
74945;SDS011;63509;45.250;38.102;2022-11-14T05:12:19;13.65;;;5.45;;
74945;SDS011;63509;45.250;38.102;2022-11-14T05:15:04;11.82;;;4.78;;
74945;SDS011;63509;45.250;38.102;2022-11-14T05:17:49;11.57;;;4.72;;
74945;SDS011;63509;45.250;38.102;2022-11-14T05:20:33;10.63;;;5.18;;
74945;SDS011;63509;45.250;38.102;2022-11-14T05:23:19;14.13;;;4.65;;
74945;SDS011;63509;45.250;38.102;2022-11-14T05:26:06;10.38;;;4.95;;
74945;SDS011;63509;45.250;38.102;2022-11-14T05:28:52;13.35;;;4.97;;
74945;SDS011;63509;45.250;38.102;2022-11-14T05:31:36;9.25;;;5.25;;
74945;SDS011;63509;45.250;38.102;2022-11-14T05:34:21;11.63;;;6.45;;
74945;SDS011;63509;45.250;38.102;2022-11-14T05:37:06;12.90;;;7.60;;
74945;SDS011;63509;45.250;38.102;2022-11-14T05:39:51;16.67;;;9.48;;
74945;SDS011;63509;45.250;38.102;2022-11-14T05:42:36;19.70;;;9.98;;
74945;SDS011;63509;45.250;38.102;2022-11-14T05:45:21;14.32;;;9.27;;
74945;SDS011;63509;45.250;38.102;2022-11-14T05:48:05;15.30;;;9.02;;
74945;SDS011;63509;45.250;38.102;2022-11-14T05:50:53;14.35;;;9.70;;
74945;SDS011;63509;45.250;38.102;2022-11-14T05:53:38;15.02;;;9.57;;
74945;SDS011;63509;45.250;38.102;2022-11-14T05:56:23;17.52;;;8.68;;
74945;SDS011;63509;45.250;38.102;2022-11-14T05:59:08;14.13;;;8.50;;
74945;SDS011;63509;45.250;38.102;2022-11-14T06:01:52;13.00;;;6.55;;
74945;SDS011;63509;45.250;38.102;2022-11-14T06:04:37;14.75;;;6.25;;
74945;SDS011;63509;45.250;38.102;2022-11-14T06:07:22;12.45;;;5.55;;
74945;SDS011;63509;45.250;38.102;2022-11-14T06:10:07;10.48;;;5.50;;
74945;SDS011;63509;45.250;38.102;2022-11-14T06:12:52;12.63;;;6.20;;
74945;SDS011;63509;45.250;38.102;2022-11-14T06:15:36;11.85;;;6.50;;
74945;SDS011;63509;45.250;38.102;2022-11-14T06:18:21;13.10;;;6.70;;
74945;SDS011;63509;45.250;38.102;2022-11-14T06:21:07;13.27;;;6.82;;
74945;SDS011;63509;45.250;38.102;2022-11-14T06:23:55;19.00;;;6.32;;
74945;SDS011;63509;45.250;38.102;2022-11-14T06:26:39;12.43;;;6.78;;
74945;SDS011;63509;45.250;38.102;2022-11-14T06:29:24;10.18;;;5.45;;
74945;SDS011;63509;45.250;38.102;2022-11-14T06:32:08;14.50;;;6.10;;
74945;SDS011;63509;45.250;38.102;2022-11-14T06:34:53;12.25;;;5.65;;
74945;SDS011;63509;45.250;38.102;2022-11-14T06:37:38;10.90;;;5.30;;
74945;SDS011;63509;45.250;38.102;2022-11-14T06:40:23;10.65;;;4.88;;
74945;SDS011;63509;45.250;38.102;2022-11-14T06:43:07;8.98;;;5.72;;
74945;SDS011;63509;45.250;38.102;2022-11-14T06:45:52;8.63;;;4.60;;
74945;SDS011;63509;45.250;38.102;2022-11-14T06:48:38;9.18;;;4.85;;
74945;SDS011;63509;45.250;38.102;2022-11-14T06:51:23;8.10;;;4.90;;
74945;SDS011;63509;45.250;38.102;2022-11-14T06:54:37;24.65;;;7.00;;
74945;SDS011;63509;45.250;38.102;2022-11-14T06:57:22;79.10;;;10.07;;
74945;SDS011;63509;45.250;38.102;2022-11-14T07:00:07;190.25;;;18.88;;
74945;SDS011;63509;45.250;38.102;2022-11-14T07:02:52;63.15;;;9.98;;
74945;SDS011;63509;45.250;38.102;2022-11-14T07:05:37;20.50;;;6.95;;
74945;SDS011;63509;45.250;38.102;2022-11-14T07:08:22;28.25;;;6.88;;
74945;SDS011;63509;45.250;38.102;2022-11-14T07:11:08;43.97;;;7.47;;
74945;SDS011;63509;45.250;38.102;2022-11-14T07:13:58;30.00;;;6.75;;
74945;SDS011;63509;45.250;38.102;2022-11-14T07:16:43;19.27;;;6.10;;
74945;SDS011;63509;45.250;38.102;2022-11-14T07:23:09;11.07;;;5.55;;
74945;SDS011;63509;45.250;38.102;2022-11-14T07:25:53;10.90;;;5.75;;
74945;SDS011;63509;45.250;38.102;2022-11-14T07:28:39;18.35;;;5.45;;
74945;SDS011;63509;45.250;38.102;2022-11-14T07:31:25;10.57;;;4.97;;
74945;SDS011;63509;45.250;38.102;2022-11-14T07:34:09;8.65;;;4.85;;
74945;SDS011;63509;45.250;38.102;2022-11-14T07:36:54;8.13;;;5.10;;
74945;SDS011;63509;45.250;38.102;2022-11-14T07:39:38;11.27;;;4.95;;
74945;SDS011;63509;45.250;38.102;2022-11-14T07:42:23;69.97;;;9.55;;
74945;SDS011;63509;45.250;38.102;2022-11-14T07:45:12;13.48;;;5.57;;
74945;SDS011;63509;45.250;38.102;2022-11-14T07:47:58;10.00;;;5.88;;
74945;SDS011;63509;45.250;38.102;2022-11-14T07:50:43;22.65;;;6.35;;
74945;SDS011;63509;45.250;38.102;2022-11-14T07:53:30;59.70;;;10.38;;
74945;SDS011;63509;45.250;38.102;2022-11-14T07:56:15;46.60;;;9.63;;
74945;SDS011;63509;45.250;38.102;2022-11-14T07:59:00;33.05;;;7.00;;
74945;SDS011;63509;45.250;38.102;2022-11-14T08:01:44;39.42;;;6.93;;
74945;SDS011;63509;45.250;38.102;2022-11-14T08:04:29;21.52;;;5.97;;
74945;SDS011;63509;45.250;38.102;2022-11-14T08:07:14;19.25;;;5.88;;
74945;SDS011;63509;45.250;38.102;2022-11-14T08:09:58;31.63;;;7.78;;
74945;SDS011;63509;45.250;38.102;2022-11-14T08:12:43;38.90;;;7.40;;
74945;SDS011;63509;45.250;38.102;2022-11-14T08:15:29;45.38;;;7.57;;
74945;SDS011;63509;45.250;38.102;2022-11-14T08:18:13;41.75;;;7.05;;
74945;SDS011;63509;45.250;38.102;2022-11-14T08:20:58;60.22;;;8.50;;
74945;SDS011;63509;45.250;38.102;2022-11-14T08:23:42;35.33;;;7.00;;
74945;SDS011;63509;45.250;38.102;2022-11-14T08:26:28;32.28;;;6.35;;
74945;SDS011;63509;45.250;38.102;2022-11-14T08:29:12;25.10;;;5.47;;
74945;SDS011;63509;45.250;38.102;2022-11-14T08:31:57;27.40;;;6.47;;
74945;SDS011;63509;45.250;38.102;2022-11-14T08:34:41;39.47;;;6.28;;
74945;SDS011;63509;45.250;38.102;2022-11-14T08:37:26;15.13;;;5.72;;
74945;SDS011;63509;45.250;38.102;2022-11-14T08:40:10;43.25;;;6.15;;
74945;SDS011;63509;45.250;38.102;2022-11-14T08:42:59;52.22;;;6.57;;
74945;SDS011;63509;45.250;38.102;2022-11-14T08:45:45;42.95;;;7.68;;
74945;SDS011;63509;45.250;38.102;2022-11-14T08:48:30;32.38;;;7.18;;
74945;SDS011;63509;45.250;38.102;2022-11-14T08:51:15;29.55;;;8.18;;
74945;SDS011;63509;45.250;38.102;2022-11-14T08:54:00;41.38;;;7.68;;
74945;SDS011;63509;45.250;38.102;2022-11-14T08:56:45;20.45;;;7.05;;
74945;SDS011;63509;45.250;38.102;2022-11-14T08:59:30;12.60;;;6.40;;
74945;SDS011;63509;45.250;38.102;2022-11-14T09:02:15;65.35;;;8.05;;
74945;SDS011;63509;45.250;38.102;2022-11-14T09:04:59;17.55;;;6.45;;
74945;SDS011;63509;45.250;38.102;2022-11-14T09:07:44;8.10;;;5.00;;
74945;SDS011;63509;45.250;38.102;2022-11-14T09:10:28;8.40;;;4.43;;
74945;SDS011;63509;45.250;38.102;2022-11-14T09:13:13;9.52;;;4.90;;
74945;SDS011;63509;45.250;38.102;2022-11-14T09:15:58;9.00;;;4.25;;
74945;SDS011;63509;45.250;38.102;2022-11-14T09:18:43;9.20;;;5.03;;
74945;SDS011;63509;45.250;38.102;2022-11-14T09:21:27;8.70;;;4.93;;
74945;SDS011;63509;45.250;38.102;2022-11-14T09:24:12;8.98;;;5.63;;
74945;SDS011;63509;45.250;38.102;2022-11-14T09:26:56;9.90;;;5.88;;
74945;SDS011;63509;45.250;38.102;2022-11-14T09:29:41;12.10;;;5.75;;
74945;SDS011;63509;45.250;38.102;2022-11-14T09:32:25;12.07;;;6.00;;
74945;SDS011;63509;45.250;38.102;2022-11-14T09:35:10;10.90;;;5.53;;
74945;SDS011;63509;45.250;38.102;2022-11-14T09:38:03;9.25;;;5.47;;
74945;SDS011;63509;45.250;38.102;2022-11-14T09:44:03;12.38;;;6.07;;
74945;SDS011;63509;45.250;38.102;2022-11-14T09:46:52;12.68;;;6.30;;
74945;SDS011;63509;45.250;38.102;2022-11-14T09:49:44;11.40;;;6.88;;
74945;SDS011;63509;45.250;38.102;2022-11-14T09:52:51;11.57;;;6.25;;
74945;SDS011;63509;45.250;38.102;2022-11-14T09:55:39;14.82;;;6.13;;
74945;SDS011;63509;45.250;38.102;2022-11-14T09:58:24;11.43;;;5.18;;
74945;SDS011;63509;45.250;38.102;2022-11-14T10:10:53;11.18;;;6.63;;
74945;SDS011;63509;45.250;38.102;2022-11-14T10:13:59;11.27;;;7.20;;
74945;SDS011;63509;45.250;38.102;2022-11-14T10:17:04;10.23;;;6.45;;
74945;SDS011;63509;45.250;38.102;2022-11-14T10:29:01;14.60;;;6.30;;
74945;SDS011;63509;45.250;38.102;2022-11-14T10:31:52;12.38;;;5.80;;
74945;SDS011;63509;45.250;38.102;2022-11-14T10:38:03;14.20;;;7.32;;
74945;SDS011;63509;45.250;38.102;2022-11-14T10:40:55;12.90;;;7.85;;
74945;SDS011;63509;45.250;38.102;2022-11-14T10:43:47;8.98;;;6.07;;
74945;SDS011;63509;45.250;38.102;2022-11-14T10:46:37;11.75;;;6.10;;
74945;SDS011;63509;45.250;38.102;2022-11-14T10:49:24;11.75;;;6.57;;
74945;SDS011;63509;45.250;38.102;2022-11-14T10:52:15;9.38;;;5.32;;
74945;SDS011;63509;45.250;38.102;2022-11-14T10:55:05;11.38;;;5.63;;
74945;SDS011;63509;45.250;38.102;2022-11-14T10:57:51;10.27;;;5.68;;
74945;SDS011;63509;45.250;38.102;2022-11-14T11:00:35;9.45;;;6.20;;
74945;SDS011;63509;45.250;38.102;2022-11-14T11:03:22;14.23;;;5.45;;
74945;SDS011;63509;45.250;38.102;2022-11-14T11:06:25;13.50;;;6.22;;
74945;SDS011;63509;45.250;38.102;2022-11-14T11:09:21;10.63;;;5.32;;
74945;SDS011;63509;45.250;38.102;2022-11-14T11:15:23;13.13;;;6.82;;
74945;SDS011;63509;45.250;38.102;2022-11-14T11:18:33;10.48;;;5.68;;
74945;SDS011;63509;45.250;38.102;2022-11-14T11:21:20;12.88;;;5.43;;
74945;SDS011;63509;45.250;38.102;2022-11-14T11:24:06;10.88;;;5.50;;
74945;SDS011;63509;45.250;38.102;2022-11-14T11:27:10;11.05;;;6.05;;
74945;SDS011;63509;45.250;38.102;2022-11-14T11:30:20;15.27;;;6.93;;
74945;SDS011;63509;45.250;38.102;2022-11-14T11:36:19;19.05;;;9.32;;
74945;SDS011;63509;45.250;38.102;2022-11-14T11:39:09;244.07;;;23.17;;
74945;SDS011;63509;45.250;38.102;2022-11-14T11:42:07;35.38;;;8.13;;
74945;SDS011;63509;45.250;38.102;2022-11-14T11:45:01;34.55;;;7.00;;
74945;SDS011;63509;45.250;38.102;2022-11-14T11:47:57;11.63;;;3.95;;
74945;SDS011;63509;45.250;38.102;2022-11-14T11:51:02;43.72;;;7.28;;
74945;SDS011;63509;45.250;38.102;2022-11-14T11:56:43;129.70;;;11.18;;
74945;SDS011;63509;45.250;38.102;2022-11-14T11:59:32;20.35;;;5.50;;
74945;SDS011;63509;45.250;38.102;2022-11-14T12:02:24;15.82;;;5.45;;
74945;SDS011;63509;45.250;38.102;2022-11-14T12:05:12;8.82;;;4.47;;
74945;SDS011;63509;45.250;38.102;2022-11-14T12:11:13;273.65;;;24.77;;
74945;SDS011;63509;45.250;38.102;2022-11-14T12:14:06;247.20;;;26.90;;
74945;SDS011;63509;45.250;38.102;2022-11-14T12:23:24;284.73;;;25.80;;
74945;SDS011;63509;45.250;38.102;2022-11-14T12:31:55;413.65;;;29.52;;
74945;SDS011;63509;45.250;38.102;2022-11-14T12:34:49;478.85;;;36.28;;
74945;SDS011;63509;45.250;38.102;2022-11-14T12:37:36;632.53;;;54.30;;
74945;SDS011;63509;45.250;38.102;2022-11-14T12:40:33;532.97;;;44.67;;
74945;SDS011;63509;45.250;38.102;2022-11-14T12:46:11;409.27;;;29.77;;
74945;SDS011;63509;45.250;38.102;2022-11-14T12:48:56;292.48;;;24.13;;
74945;SDS011;63509;45.250;38.102;2022-11-14T12:54:47;197.95;;;22.52;;
74945;SDS011;63509;45.250;38.102;2022-11-14T12:57:40;182.57;;;19.20;;
74945;SDS011;63509;45.250;38.102;2022-11-14T13:00:31;146.55;;;14.45;;
74945;SDS011;63509;45.250;38.102;2022-11-14T13:13:07;302.60;;;26.35;;
74945;SDS011;63509;45.250;38.102;2022-11-14T13:16:25;31.58;;;13.48;;
74945;SDS011;63509;45.250;38.102;2022-11-14T13:22:38;315.30;;;62.13;;
74945;SDS011;63509;45.250;38.102;2022-11-14T13:25:24;100.95;;;29.00;;
74945;SDS011;63509;45.250;38.102;2022-11-14T13:34:34;120.22;;;18.80;;
74945;SDS011;63509;45.250;38.102;2022-11-14T13:52:53;363.35;;;37.65;;
74945;SDS011;63509;45.250;38.102;2022-11-14T13:55:45;435.17;;;43.53;;
74945;SDS011;63509;45.250;38.102;2022-11-14T14:09:51;28.38;;;9.50;;
74945;SDS011;63509;45.250;38.102;2022-11-14T14:15:33;48.03;;;18.75;;
74945;SDS011;63509;45.250;38.102;2022-11-14T14:18:31;36.75;;;17.45;;
74945;SDS011;63509;45.250;38.102;2022-11-14T14:24:34;79.63;;;25.63;;
74945;SDS011;63509;45.250;38.102;2022-11-14T14:27:49;214.93;;;26.65;;
74945;SDS011;63509;45.250;38.102;2022-11-14T14:33:51;120.88;;;21.73;;
74945;SDS011;63509;45.250;38.102;2022-11-14T14:36:35;98.22;;;20.17;;
74945;SDS011;63509;45.250;38.102;2022-11-14T14:39:24;70.85;;;16.88;;
74945;SDS011;63509;45.250;38.102;2022-11-14T14:42:10;68.93;;;13.23;;
74945;SDS011;63509;45.250;38.102;2022-11-14T14:44:55;62.20;;;13.82;;
74945;SDS011;63509;45.250;38.102;2022-11-14T14:47:42;61.60;;;11.32;;
74945;SDS011;63509;45.250;38.102;2022-11-14T14:50:36;27.88;;;6.07;;
74945;SDS011;63509;45.250;38.102;2022-11-14T14:53:49;13.25;;;4.43;;
74945;SDS011;63509;45.250;38.102;2022-11-14T14:56:36;14.82;;;5.82;;
74945;SDS011;63509;45.250;38.102;2022-11-14T14:59:22;15.35;;;5.97;;
74945;SDS011;63509;45.250;38.102;2022-11-14T15:02:16;13.38;;;6.00;;
74945;SDS011;63509;45.250;38.102;2022-11-14T15:05:04;15.85;;;6.55;;
74945;SDS011;63509;45.250;38.102;2022-11-14T15:07:50;19.60;;;8.75;;
74945;SDS011;63509;45.250;38.102;2022-11-14T15:10:39;29.25;;;9.75;;
74945;SDS011;63509;45.250;38.102;2022-11-14T15:13:25;25.92;;;11.30;;
74945;SDS011;63509;45.250;38.102;2022-11-14T15:16:11;28.50;;;12.32;;
74945;SDS011;63509;45.250;38.102;2022-11-14T15:18:56;28.60;;;13.93;;
74945;SDS011;63509;45.250;38.102;2022-11-14T15:21:41;41.30;;;17.77;;
74945;SDS011;63509;45.250;38.102;2022-11-14T15:24:26;35.75;;;18.05;;
74945;SDS011;63509;45.250;38.102;2022-11-14T15:27:15;42.15;;;17.17;;
74945;SDS011;63509;45.250;38.102;2022-11-14T15:30:03;43.00;;;19.83;;
74945;SDS011;63509;45.250;38.102;2022-11-14T15:32:53;70.90;;;28.40;;
74945;SDS011;63509;45.250;38.102;2022-11-14T15:35:39;67.78;;;28.40;;
74945;SDS011;63509;45.250;38.102;2022-11-14T15:38:24;80.13;;;32.42;;
74945;SDS011;63509;45.250;38.102;2022-11-14T15:41:16;72.60;;;32.25;;
74945;SDS011;63509;45.250;38.102;2022-11-14T15:44:03;60.45;;;29.02;;
74945;SDS011;63509;45.250;38.102;2022-11-14T15:46:48;63.28;;;27.50;;
74945;SDS011;63509;45.250;38.102;2022-11-14T15:49:33;57.90;;;27.55;;
74945;SDS011;63509;45.250;38.102;2022-11-14T15:52:23;60.55;;;26.17;;
74945;SDS011;63509;45.250;38.102;2022-11-14T15:55:17;54.33;;;22.60;;
74945;SDS011;63509;45.250;38.102;2022-11-14T15:58:06;57.97;;;24.67;;
74945;SDS011;63509;45.250;38.102;2022-11-14T16:00:52;53.45;;;23.27;;
74945;SDS011;63509;45.250;38.102;2022-11-14T16:03:38;61.75;;;24.45;;
74945;SDS011;63509;45.250;38.102;2022-11-14T16:06:22;49.90;;;23.00;;
74945;SDS011;63509;45.250;38.102;2022-11-14T16:09:11;50.53;;;23.42;;
74945;SDS011;63509;45.250;38.102;2022-11-14T16:11:58;53.63;;;24.52;;
74945;SDS011;63509;45.250;38.102;2022-11-14T16:14:43;53.78;;;22.10;;
74945;SDS011;63509;45.250;38.102;2022-11-14T16:17:28;52.33;;;23.10;;
74945;SDS011;63509;45.250;38.102;2022-11-14T16:20:21;47.33;;;22.42;;
74945;SDS011;63509;45.250;38.102;2022-11-14T16:23:12;67.28;;;31.90;;
74945;SDS011;63509;45.250;38.102;2022-11-14T16:25:57;92.40;;;45.05;;
74945;SDS011;63509;45.250;38.102;2022-11-14T16:28:42;98.00;;;48.45;;
74945;SDS011;63509;45.250;38.102;2022-11-14T16:31:26;83.57;;;38.95;;
74945;SDS011;63509;45.250;38.102;2022-11-14T16:34:15;57.60;;;26.70;;
74945;SDS011;63509;45.250;38.102;2022-11-14T16:37:03;59.65;;;24.05;;
74945;SDS011;63509;45.250;38.102;2022-11-14T16:39:47;62.50;;;24.52;;
74945;SDS011;63509;45.250;38.102;2022-11-14T16:42:32;64.47;;;24.33;;
74945;SDS011;63509;45.250;38.102;2022-11-14T16:45:17;50.28;;;22.58;;
74945;SDS011;63509;45.250;38.102;2022-11-14T16:48:05;47.47;;;22.27;;
74945;SDS011;63509;45.250;38.102;2022-11-14T16:50:49;50.58;;;22.23;;
74945;SDS011;63509;45.250;38.102;2022-11-14T16:53:34;51.63;;;22.35;;
74945;SDS011;63509;45.250;38.102;2022-11-14T16:56:18;61.10;;;24.27;;
74945;SDS011;63509;45.250;38.102;2022-11-14T16:59:03;51.28;;;23.20;;
74945;SDS011;63509;45.250;38.102;2022-11-14T17:01:47;56.05;;;23.50;;
74945;SDS011;63509;45.250;38.102;2022-11-14T17:04:32;59.33;;;26.17;;
74945;SDS011;63509;45.250;38.102;2022-11-14T17:07:16;71.90;;;27.40;;
74945;SDS011;63509;45.250;38.102;2022-11-14T17:10:01;61.67;;;27.17;;
74945;SDS011;63509;45.250;38.102;2022-11-14T17:12:46;61.17;;;26.23;;
74945;SDS011;63509;45.250;38.102;2022-11-14T17:15:31;74.85;;;27.67;;
74945;SDS011;63509;45.250;38.102;2022-11-14T17:18:16;62.70;;;27.20;;
74945;SDS011;63509;45.250;38.102;2022-11-14T17:21:04;70.32;;;27.58;;
74945;SDS011;63509;45.250;38.102;2022-11-14T17:23:54;62.10;;;26.38;;
74945;SDS011;63509;45.250;38.102;2022-11-14T17:26:40;66.38;;;26.15;;
74945;SDS011;63509;45.250;38.102;2022-11-14T17:29:24;65.53;;;27.33;;
74945;SDS011;63509;45.250;38.102;2022-11-14T17:32:09;68.22;;;26.50;;
74945;SDS011;63509;45.250;38.102;2022-11-14T17:34:53;64.32;;;27.35;;
74945;SDS011;63509;45.250;38.102;2022-11-14T17:37:38;59.03;;;27.50;;
74945;SDS011;63509;45.250;38.102;2022-11-14T17:40:22;64.63;;;28.05;;
74945;SDS011;63509;45.250;38.102;2022-11-14T17:43:07;74.75;;;34.70;;
74945;SDS011;63509;45.250;38.102;2022-11-14T17:45:53;81.07;;;33.38;;
74945;SDS011;63509;45.250;38.102;2022-11-14T17:48:41;84.45;;;37.08;;
74945;SDS011;63509;45.250;38.102;2022-11-14T17:51:27;76.30;;;33.13;;
74945;SDS011;63509;45.250;38.102;2022-11-14T17:54:12;56.67;;;29.60;;
74945;SDS011;63509;45.250;38.102;2022-11-14T17:56:56;55.83;;;24.95;;
74945;SDS011;63509;45.250;38.102;2022-11-14T17:59:42;61.60;;;25.77;;
74945;SDS011;63509;45.250;38.102;2022-11-14T18:02:27;46.80;;;21.63;;
74945;SDS011;63509;45.250;38.102;2022-11-14T18:05:12;53.75;;;24.50;;
74945;SDS011;63509;45.250;38.102;2022-11-14T18:07:56;56.92;;;24.50;;
74945;SDS011;63509;45.250;38.102;2022-11-14T18:10:41;46.90;;;23.65;;
74945;SDS011;63509;45.250;38.102;2022-11-14T18:13:26;53.55;;;23.58;;